West Palm Beach, FL

12:45 AM EST on December 05, 2016 (GMT -0500)
Downtown | | Change Station
Active Advisory: Coastal Hazard Statement

Elev 0 ft 26.71 °N, 80.05 °W | Updated 3 minutes ago

Scattered Clouds
Scattered Clouds
76.1 °F
Feels Like 78 °F
N
0.6
Wind Variable Wind from SW
Gusts 1.9 mph

Today
High -- | Low -- °F
--% Chance of Precip.
Yesterday
High -- | Low -- °F
Precip. -- in
Pressure 30.05 in
Visibility 10.0 miles
Clouds Scattered Clouds 2200 ft
Scattered Clouds 2900 ft
Heat Index 78 °F
Dew Point 67 °F
Humidity 73%
Rainfall Not available.
Snow Depth Not available.
6:54 AM 5:27 PM
Waxing Crescent, 28% visible
METAR KPBI 050453Z 15008KT 10SM SCT022 SCT029 24/21 A3005 RMK AO2 SLP175 T02440206 402670228
Pressure 30.05 in
Visibility 10.0 miles
Clouds Scattered Clouds 2200 ft
Scattered Clouds 2900 ft
Heat Index 78 °F
Dew Point 67 °F
Humidity 73%
Rainfall Not available.
Snow Depth Not available.
6:54 AM 5:27 PM
Waxing Crescent, 28% visible
METAR KPBI 050453Z 15008KT 10SM SCT022 SCT029 24/21 A3005 RMK AO2 SLP175 T02440206 402670228

10-Day Weather Forecast

Almanac

Astronomy

Dec. 05, 2016 Rise Set
Actual Time
Civil Twilight
Nautical Twilight
Astronomical Twilight
Moon
Length of Visible Light
Length of Day
Tomorrow will be .
, % of the Moon is Illuminated

Today's Extremes

State Highs State Lows

Community

WunderPhotos

Upload Photos

1,955,770 photos uploaded!

WunderBlog® & News

Nearby

Air Quality

  Air Quality AQ Index Pollutant
Not available.

Snow Depth

Station Depth Elevation

Earthquake Activity

City Distance Mag. Time & Date
Minimum magnitude displayed is 2.5.

Coastal Water Temperatures

Place Temperature

Stations

Nearby Weather Stations

Station Location Temp. Windchill Dew Point Humidity Wind Precip. Elev Updated Type
                   

Watches & Warnings

Coastal Hazard Statement
Issued: 3:56 AM EST Dec. 4, 2016 – National Weather Service

... High rip current risk remains in effect through tonight...

* timing... today through tonight.

* Impacts... life threatening rip currents are likely.

Precautionary/preparedness actions...

There is a high risk of rip currents.

Rip currents are powerful channels of water flowing quickly away
from shore... which occur most often at low spots or breaks in The
Sandbar and in the vicinity of structures such as groins...
jetties and piers. Heed the advice of lifeguards... beach patrol
flags and signs.

If you become caught in a rip current... Yell for help. Remain
calm... do not exhaust yourself and stay afloat while waiting for
help. If you have to swim out of a rip current... swim parallel to
shore and back toward the beach when possible. Do not attempt to
swim directly against a rip current as you will tire quickly.

Swim near a lifeguard. If caught in a rip current remain calm.
Don't fight the current. Swim in a direction following the
shoreline. If unable to escape, face the shore and call or wave
for help. If tired, float or tread water until out of the rip
current.